Latest Weather Observations for Larapuna (Eddystone Point)

IDT60801

Issued at 2:51 pm EDT Tuesday 18 January 2022 (issued every 10 minutes, with the page automatically refreshed every 10 minutes)

About weather observations | Map of weather stations | Latest weather observations for TAS | Other Formats
Station Details ID: 092045 Name: LARAPUNA (EDDYSTONE POINT) Lat: -40.99 Lon: 148.35 Height: 19.7 m
Data from the previous 72 hours. | See also: Recent months at Larapuna (Eddystone Point)
Date/Time
EDT
Temp
°C
App
Temp
°C
Dew
Point
°C
Rel
Hum
%
Delta-T
°C
Wind Press
QNH
hPa
Press
MSL
hPa
Rain since
9am
mm
Dir  Spd
km/h
Gust
km/h
Spd
kts
Gust
kts
18/02:30pm 21.6 16.6 12.2 55 5.3 SSE 30 37 16 20 1016.6 1016.6 0.0
18/02:00pm 21.6 16.3 12.5 56 5.1 SSE 32 37 17 20 1016.6 1016.6 0.0
18/01:30pm 21.6 16.7 12.7 57 5.1 SE 30 35 16 19 1016.7 1016.7 0.0
18/01:00pm 20.9 15.6 12.6 59 4.7 SSE 32 39 17 21 1016.5 1016.5 0.0
18/12:30pm 19.5 14.0 12.3 63 4.0 SSE 33 39 18 21 1016.4 1016.4 0.0
18/12:00pm 20.1 14.3 11.6 58 4.7 SSE 33 41 18 22 1016.2 1016.2 0.0
18/11:30am 19.7 14.0 11.7 60 4.4 SSE 33 43 18 23 1015.9 1015.9 0.0
18/11:00am 19.3 12.6 12.3 64 3.9 SSE 39 43 21 23 1015.8 1015.8 0.0
18/10:30am 19.1 12.8 12.4 65 3.7 SSE 37 43 20 23 1015.6 1015.6 0.0
18/10:00am 17.8 11.6 12.5 71 2.9 SSE 37 43 20 23 1015.3 1015.3 0.0
18/09:30am 17.1 10.4 12.2 73 2.7 SSE 39 46 21 25 1015.1 1015.1 0.0
18/09:00am 16.6 10.6 13.3 81 1.8 SSE 37 46 20 25 1014.8 1014.8 0.2
18/08:30am 16.5 10.3 13.8 84 1.5 SSE 39 46 21 25 1014.3 1014.3 0.2
18/08:00am 16.9 12.2 14.4 85 1.4 SSE 32 43 17 23 1013.8 1013.8 0.2
18/07:30am 17.8 13.9 14.3 80 2.0 ESE 28 32 15 17 1013.3 1013.3 0.2
18/07:00am 17.0 12.9 13.9 82 1.8 ESE 28 35 15 19 1012.9 1012.9 0.2
18/06:30am 16.8 13.2 14.1 84 1.5 ESE 26 35 14 19 1012.5 1012.5 0.2
18/06:00am 16.2 14.9 14.7 91 0.9 ESE 15 32 8 17 1012.2 1012.2 0.2
18/05:30am 15.6 15.6 14.1 91 0.8 NNE 7 11 4 6 1011.9 1011.9 0.2
18/05:00am 15.3 14.8 13.8 91 0.8 NW 9 11 5 6 1011.7 1011.7 0.2
18/04:30am 15.5 15.1 14.0 91 0.8 W 9 11 5 6 1011.4 1011.4 0.0
18/04:00am 16.2 15.6 14.7 91 0.9 W 11 13 6 7 1011.2 1011.2 0.0
18/03:30am 17.0 17.4 14.8 87 1.3 NE 6 9 3 5 1011.2 1011.2 0.0
18/03:00am 17.4 16.8 14.5 83 1.7 SE 11 15 6 8 1011.3 1011.3 0.0
18/02:30am 17.3 16.2 14.4 83 1.7 SE 13 17 7 9 1011.4 1011.4 0.0
18/02:00am 17.3 17.6 14.6 84 1.6 ESE 6 11 3 6 1011.4 1011.4 0.0
18/01:30am 17.4 15.2 14.5 83 1.7 SE 19 24 10 13 1011.2 1011.2 0.0
18/01:00am 17.3 14.6 14.6 84 1.6 SSE 22 26 12 14 1011.1 1011.1 0.0
18/12:30am 17.4 15.2 14.9 85 1.4 SE 20 24 11 13 1011.0 1011.0 0.0
18/12:00am 17.1 14.0 14.6 85 1.4 SSE 24 30 13 16 1011.0 1011.0 0.0
 
Date/Time
EDT
Temp
°C
App
Temp
°C
Dew
Point
°C
Rel
Hum
%
Delta-T
°C
Wind Press
QNH
hPa
Press
MSL
hPa
Rain since
9am
mm
Dir  Spd
km/h
Gust
km/h
Spd
kts
Gust
kts
17/11:30pm 17.0 16.1 14.8 87 1.3 SSE 13 19 7 10 1011.0 1011.0 0.0
17/11:00pm 17.1 17.0 14.9 87 1.3 S 9 13 5 7 1011.0 1011.0 0.0
17/10:30pm 17.0 14.8 15.0 88 1.2 S 20 24 11 13 1010.8 1010.8 0.0
17/10:00pm 17.2 14.7 15.2 88 1.2 S 22 26 12 14 1010.6 1010.6 0.0
17/09:30pm 17.8 13.9 15.4 86 1.4 S 30 33 16 18 1010.0 1010.0 0.0
17/09:00pm 18.0 13.8 15.6 86 1.4 S 32 37 17 20 1009.6 1009.6 0.0
17/08:30pm 18.3 13.5 15.6 84 1.6 S 35 44 19 24 1009.0 1009.0 0.0
17/08:00pm 19.2 15.6 16.2 83 1.8 S 30 37 16 20 1008.5 1008.5 0.0
17/07:43pm 20.6 18.1 16.2 76 2.6 SW 24 41 13 22 1008.0 1008.0 0.0
17/07:30pm 20.7 17.9 12.7 60 4.5 WSW 19 26 10 14 1007.9 1007.9 0.0
17/07:00pm 21.8 17.9 13.2 58 4.9 WNW 26 37 14 20 1006.9 1006.9 0.0
17/06:30pm 22.4 16.7 12.9 55 5.4 WNW 35 50 19 27 1006.3 1006.3 0.0
17/06:04pm 23.2 17.6 13.4 54 5.7 W 35 54 19 29 1005.8 1005.8 0.0
17/06:00pm 23.4 17.5 13.6 54 5.7 WNW 37 54 20 29 1005.7 1005.7 0.0
17/05:30pm 23.4 17.3 14.1 56 5.5 WNW 39 59 21 32 1005.4 1005.4 0.0
17/05:00pm 23.2 15.6 13.7 55 5.6 WNW 46 65 25 35 1004.7 1004.7 0.0
17/04:33pm 24.4 19.0 15.1 56 5.6 WNW 37 56 20 30 1005.2 1005.2 0.0
17/04:30pm 24.2 18.1 15.1 56 5.5 WNW 41 56 22 30 1005.1 1005.1 0.0
17/04:00pm 23.6 16.0 14.6 57 5.4 NW 48 67 26 36 1004.9 1004.9 0.0
17/03:38pm 24.0 17.3 14.7 56 5.5 WNW 43 61 23 33 1004.6 1004.6 0.0
17/03:30pm 23.8 17.0 14.8 57 5.4 NW 44 61 24 33 1004.3 1004.3 0.0
17/03:24pm 24.2 17.8 15.4 58 5.3 NW 43 61 23 33 1004.3 1004.3 0.0
17/03:00pm 24.2 18.3 15.7 59 5.2 NW 41 54 22 29 1004.4 1004.4 0.0
17/02:30pm 25.8 21.5 16.9 58 5.5 WNW 35 50 19 27 1004.3 1004.3 0.0
17/02:00pm 25.8 21.4 16.6 56 5.7 WNW 35 48 19 26 1004.1 1004.1 0.0
17/01:30pm 26.6 23.2 16.8 55 6.1 NW 30 37 16 20 1004.1 1004.1 0.0
17/01:00pm 26.3 23.6 16.5 54 6.1 NW 26 39 14 21 1004.2 1004.2 0.0
17/12:30pm 23.0 21.5 18.5 76 2.8 N 24 30 13 16 1004.8 1004.8 0.0
17/12:00pm 21.4 20.4 17.6 79 2.4 N 19 24 10 13 1005.1 1005.1 0.0
17/11:30am 22.1 22.0 18.7 81 2.1 N 17 20 9 11 1005.3 1005.3 0.0
17/11:00am 20.8 20.1 17.4 81 2.1 NNE 17 19 9 10 1005.6 1005.6 0.0
17/10:30am 21.0 21.6 17.8 82 2.0 N 11 13 6 7 1005.7 1005.7 0.0
17/10:00am 19.9 20.8 17.5 86 1.5 NW 9 13 5 7 1005.8 1005.8 0.0
17/09:30am 19.1 20.1 16.9 87 1.3 NNW 7 9 4 5 1005.7 1005.7 0.0
17/09:00am 18.3 19.5 16.8 91 0.9 NNW 6 9 3 5 1006.0 1006.0 0.2
17/08:30am 17.6 19.2 16.8 95 0.5 WSW 4 9 2 5 1006.3 1006.3 0.2
17/08:00am 17.1 19.3 16.5 96 0.4 CALM 0 0 0 0 1006.3 1006.3 0.2
17/07:30am 16.5 18.5 15.9 96 0.4 CALM 0 0 0 0 1006.2 1006.2 0.2
17/07:00am 15.7 16.2 15.1 96 0.3 WSW 6 9 3 5 1005.7 1005.7 0.2
17/06:30am 15.4 15.6 14.8 96 0.3 NW 7 11 4 6 1005.6 1005.6 0.2
17/06:00am 15.2 15.0 14.6 96 0.3 NW 9 11 5 6 1006.0 1006.0 0.2
17/05:30am 15.4 14.5 14.8 96 0.3 WNW 13 15 7 8 1006.1 1006.1 0.2
17/05:00am 15.3 14.0 14.7 96 0.3 NW 15 17 8 9 1006.2 1006.2 0.2
17/04:30am 15.5 14.9 14.7 95 0.5 NW 11 15 6 8 1006.1 1006.1 0.2
17/04:00am 15.5 15.3 14.7 95 0.5 NW 9 11 5 6 1006.3 1006.3 0.2
17/03:30am 15.9 15.9 15.1 95 0.5 NNW 9 11 5 6 1006.6 1006.6 0.2
17/03:00am 15.3 14.3 14.7 96 0.3 NW 13 13 7 7 1006.9 1006.9 0.2
17/02:30am 14.9 14.1 14.1 95 0.5 NW 11 13 6 7 1007.3 1007.3 0.2
17/02:00am 14.8 14.4 14.0 95 0.5 NW 9 11 5 6 1007.0 1007.0 0.2
17/01:30am 15.0 14.6 14.0 94 0.6 NW 9 11 5 6 1007.2 1007.2 0.2
17/01:00am 14.8 13.9 13.8 94 0.6 NW 11 13 6 7 1008.0 1008.0 0.2
17/12:30am 15.3 14.9 14.2 93 0.6 NW 9 11 5 6 1007.9 1007.9 0.2
17/12:00am 16.3 15.9 15.2 93 0.6 NNW 11 13 6 7 1007.9 1007.9 0.2
 
Date/Time
EDT
Temp
°C
App
Temp
°C
Dew
Point
°C
Rel
Hum
%
Delta-T
°C
Wind Press
QNH
hPa
Press
MSL
hPa
Rain since
9am
mm
Dir  Spd
km/h
Gust
km/h
Spd
kts
Gust
kts
16/11:30pm 16.6 15.9 15.3 92 0.8 N 13 17 7 9 1008.3 1008.3 0.2
16/11:00pm 16.2 15.2 14.7 91 0.9 NNW 13 15 7 8 1008.4 1008.4 0.2
16/10:30pm 16.3 15.0 14.7 90 0.9 NNW 15 19 8 10 1008.8 1008.8 0.2
16/10:00pm 16.5 15.2 14.7 89 1.0 NW 15 20 8 11 1009.0 1009.0 0.2
16/09:30pm 16.8 15.9 14.8 88 1.2 NW 13 17 7 9 1008.5 1008.5 0.2
16/09:00pm 17.4 16.1 15.7 90 1.0 NW 17 22 9 12 1008.2 1008.2 0.2
16/08:30pm 17.6 15.7 15.8 89 1.1 N 20 24 11 13 1007.8 1007.8 0.2
16/08:00pm 17.8 15.0 15.4 86 1.4 NNW 24 28 13 15 1007.8 1007.8 0.2
16/07:30pm 18.4 16.7 15.8 85 1.5 N 19 24 10 13 1007.3 1007.3 0.2
16/07:00pm 18.7 17.2 16.3 86 1.4 N 19 24 10 13 1007.1 1007.1 0.2
16/06:30pm 19.4 16.9 16.1 81 2.0 N 24 28 13 15 1007.0 1007.0 0.2
16/06:00pm 19.7 16.3 15.8 78 2.3 N 28 35 15 19 1007.4 1007.4 0.2
16/05:30pm 20.0 16.9 15.6 76 2.6 N 26 32 14 17 1007.5 1007.5 0.2
16/05:00pm 20.2 16.9 16.0 77 2.5 NNW 28 33 15 18 1007.9 1007.9 0.2
16/04:30pm 20.3 16.6 15.9 76 2.6 NNW 30 35 16 19 1007.8 1007.8 0.2
16/04:00pm 21.0 18.3 16.6 76 2.7 N 26 33 14 18 1008.0 1008.0 0.2
16/03:30pm 21.1 19.3 16.9 77 2.6 N 22 28 12 15 1008.0 1008.0 0.2
16/03:00pm 21.9 20.6 17.3 75 2.8 N 20 24 11 13 1008.1 1008.1 0.2
16/02:30pm 22.1 20.6 16.8 72 3.2 N 20 26 11 14 1008.2 1008.2 0.2
16/02:00pm 21.7 20.5 17.1 75 2.8 N 19 24 10 13 1008.3 1008.3 0.2
16/01:30pm 21.7 20.9 17.1 75 2.8 N 17 22 9 12 1008.3 1008.3 0.2
16/01:00pm 21.7 21.0 17.3 76 2.7 N 17 20 9 11 1008.6 1008.6 0.2
16/12:30pm 20.5 20.5 17.1 81 2.1 N 13 17 7 9 1008.7 1008.7 0.0
16/12:00pm 19.4 20.1 17.0 86 1.5 N 9 11 5 6 1008.7 1008.7 0.0
16/11:30am 19.8 20.6 16.4 81 2.0 NE 7 9 4 5 1008.4 1008.4 0.0
16/11:00am 19.9 21.3 17.7 87 1.4 E 7 13 4 7 1008.1 1008.1 0.0
16/10:30am 19.1 20.0 17.6 91 0.9 ESE 9 13 5 7 1008.0 1008.0 0.0
16/10:00am 19.3 20.8 17.6 90 1.0 ESE 6 9 3 5 1008.0 1008.0 0.0
16/09:30am 19.2 20.3 17.9 92 0.8 ESE 9 11 5 6 1007.7 1007.7 0.0
16/09:00am 18.6 19.8 17.4 93 0.7 SSE 7 11 4 6 1007.5 1007.5 0.4
16/08:30am 18.5 19.3 17.3 93 0.7 S 9 11 5 6 1007.3 1007.3 0.4
16/08:00am 18.5 18.5 17.3 93 0.7 SSE 13 15 7 8 1007.0 1007.0 0.4
16/07:30am 18.1 17.7 17.1 94 0.6 SSE 15 19 8 10 1006.7 1006.7 0.4
16/07:00am 18.1 17.4 17.3 95 0.5 S 17 20 9 11 1006.4 1006.4 0.4
16/06:30am 17.8 16.4 17.0 95 0.5 S 20 24 11 13 1006.0 1006.0 0.4
16/06:00am 17.9 16.5 17.1 95 0.5 S 20 22 11 12 1005.7 1005.7 0.4
16/05:30am 17.9 16.2 17.1 95 0.5 S 22 26 12 14 1005.0 1005.0 0.4
16/05:00am 17.9 15.3 16.9 94 0.6 S 26 32 14 17 1004.6 1004.6 0.4
16/04:30am 17.9 15.7 16.9 94 0.6 S 24 30 13 16 1004.3 1004.3 0.4
16/04:00am 17.9 15.7 16.9 94 0.6 S 24 30 13 16 1004.2 1004.2 0.4
16/03:30am 18.0 15.1 17.0 94 0.6 S 28 32 15 17 1004.1 1004.1 0.4
16/03:00am 17.9 15.3 16.9 94 0.6 S 26 32 14 17 1003.9 1003.9 0.4
16/02:30am 18.1 17.0 17.3 95 0.5 SSE 19 24 10 13 1003.6 1003.5 0.4
16/02:00am 17.8 18.1 17.0 95 0.5 SSW 11 17 6 9 1003.7 1003.7 0.4
16/01:30am 17.7 18.6 16.7 94 0.6 W 7 9 4 5 1003.9 1003.9 0.2
16/01:00am 17.9 18.8 16.6 92 0.8 WNW 7 9 4 5 1003.8 1003.8 0.0
16/12:30am 17.9 17.2 16.4 91 0.9 NW 15 20 8 11 1003.3 1003.2 0.0
16/12:00am 17.6 16.1 16.3 92 0.8 NW 19 24 10 13 1003.0 1002.9 0.0
 
Date/Time
EDT
Temp
°C
App
Temp
°C
Dew
Point
°C
Rel
Hum
%
Delta-T
°C
Wind Press
QNH
hPa
Press
MSL
hPa
Rain since
9am
mm
Dir  Spd
km/h
Gust
km/h
Spd
kts
Gust
kts
15/11:30pm 17.3 16.1 16.0 92 0.8 NW 17 20 9 11 1003.0 1002.9 0.0
15/11:00pm 17.4 16.6 16.1 92 0.8 NW 15 22 8 12 1002.9 1002.8 0.0
15/10:30pm 17.7 16.2 16.2 91 0.9 NW 19 28 10 15 1002.4 1002.3 0.0
15/10:00pm 17.9 17.6 16.4 91 0.9 WNW 13 20 7 11 1002.4 1002.3 0.0
15/09:30pm 18.4 18.6 16.7 90 1.0 WNW 11 20 6 11 1002.1 1002.0 0.0
15/09:00pm 19.0 16.1 17.1 89 1.2 NW 28 37 15 20 1001.7 1001.6 0.0
15/08:30pm 19.4 18.1 17.2 87 1.3 WNW 20 32 11 17 1001.3 1001.2 0.0
15/08:00pm 19.7 15.9 17.3 86 1.5 WNW 33 43 18 23 1000.6 1000.5 0.0
15/07:30pm 19.9 15.1 17.5 86 1.5 NW 39 48 21 26 999.7 999.6 0.0
15/07:20pm 20.3 15.5 17.5 84 1.7 NW 39 48 21 26 999.1 999.0 0.0
15/07:00pm 21.2 16.4 17.6 80 2.2 NW 39 48 21 26 1001.1 1001.0 0.0
15/06:30pm 21.6 16.9 17.8 79 2.4 NW 39 48 21 26 999.9 999.8 0.0
15/06:00pm 23.0 18.3 17.7 72 3.3 WNW 39 54 21 29 999.6 999.5 0.0
15/05:30pm 24.4 20.6 18.1 68 4.0 NW 35 44 19 24 999.5 999.4 0.0
15/05:00pm 25.6 21.8 17.3 60 5.2 NW 33 46 18 25 999.4 999.3 0.0
15/04:30pm 22.1 18.9 18.1 78 2.5 NNW 32 39 17 21 999.4 999.3 0.0
15/04:00pm 21.8 18.6 18.6 82 2.0 NNW 33 41 18 22 999.7 999.6 0.0
15/03:30pm 20.3 16.8 17.9 86 1.5 NNW 33 41 18 22 999.8 999.7 0.0
15/03:00pm 21.7 18.9 18.1 80 2.3 NNW 30 37 16 20 999.6 999.5 0.0

Other formats

Comma delimited format used in spreadsheet applications
http://www.bom.gov.au/fwo/IDT60801/IDT60801.94983.axf

JavaScript Object Notation format (JSON) in row-major order
http://www.bom.gov.au/fwo/IDT60801/IDT60801.94983.json

Data quality

Most of these data are generated automatically and are frequently updated. Quality checks on data are not normally performed. It is possible for incorrect values to appear. Refer to information at About Latest Weather Observations and please check the disclaimer before using these data.